Marshfield, WI (54449)

3:12 AM CDT on March 27, 2015 (GMT -0500)
Marshfield Municipal | | Change Station
CLOSE
Current Station
Airport
Location: Marshfield,
Elevation: 1276 ft
Nearby Weather Stations

Elev 1276 ft 44.64 °N, 90.19 °W | Updated 18 minutes ago

Clear
Clear
13 °F
Feels Like 5 °F
N
5
Wind Variable Wind from NW

Today
High -- | Low -- °F
--% Chance of Precip.
Yesterday
High -- | Low -- °F
Precip. -- in
6:51 AM 7:21 PM
Waxing Crescent, 50% visible
Pressure 30.22 in
Visibility 10.0 miles
Clouds Clear
Windchill 5 °F
Dew Point 7 °F
Humidity 77%
Rainfall 0.00 in
Snow Depth Not available.
UV 0 out of 12
Pollen 3.40 out of 12
Air Quality Not available.
Flu Activity Not available.
METAR KMFI 270754Z AUTO 31004KT 10SM CLR M11/M14 A3015 RMK AO2 SLP231 T11061139

More Conditions Fewer Conditions

Pressure 30.22 in
Visibility 10.0 miles
Clouds Clear
Windchill 5 °F
Dew Point 7 °F
Humidity 77%
Rainfall 0.00 in
Snow Depth Not available.
UV 0 out of 12
Pollen 3.40 out of 12
Air Quality Not available.
Flu Activity Not available.
METAR KMFI 270754Z AUTO 31004KT 10SM CLR M11/M14 A3015 RMK AO2 SLP231 T11061139

More Conditions Fewer Conditions

10-Day Weather Forecast

Almanac

Astronomy

Mar. 27, 2015 Rise Set
Actual Time
Civil Twilight
Nautical Twilight
Astronomical Twilight
Moon
Length of Visible Light
Length of Day
Tomorrow will be .
, % of the Moon is Illuminated

Today's Extremes

State Highs State Lows

Community

WunderPhotos

Upload Photos

1,808,705 photos uploaded!

WunderBlogs® & News

Nearby

Air Quality

  Air Quality AQ Index Pollutant
Not available.

Snow Depth

Station Depth Elevation

Earthquake Activity

City Distance Mag. Time & Date
Minimum magnitude displayed is 2.5.

Coastal Water Temperatures

Place Temperature

Stations

Nearby Weather Stations

Station Location Temp. Windchill Dew Point Humidity Wind Precip. Elev Updated Type